sensor_id;sensor_type;location;lat;lon;timestamp;pressure;altitude;pressure_sealevel;temperature
45034;BMP280;30771;47.988;-4.186;2023-11-22T00:00:12;101754.47;;;11.20
45034;BMP280;30771;47.988;-4.186;2023-11-22T00:02:39;101755.50;;;11.19
45034;BMP280;30771;47.988;-4.186;2023-11-22T00:05:06;101761.91;;;11.16
45034;BMP280;30771;47.988;-4.186;2023-11-22T00:07:33;101744.66;;;11.13
45034;BMP280;30771;47.988;-4.186;2023-11-22T00:10:00;101751.38;;;11.16
45034;BMP280;30771;47.988;-4.186;2023-11-22T00:12:27;101750.53;;;11.15
45034;BMP280;30771;47.988;-4.186;2023-11-22T00:14:54;101754.81;;;11.16
45034;BMP280;30771;47.988;-4.186;2023-11-22T00:17:20;101740.53;;;11.11
45034;BMP280;30771;47.988;-4.186;2023-11-22T00:19:47;101755.19;;;11.13
45034;BMP280;30771;47.988;-4.186;2023-11-22T00:22:13;101754.81;;;11.16
45034;BMP280;30771;47.988;-4.186;2023-11-22T00:24:40;101758.44;;;11.15
45034;BMP280;30771;47.988;-4.186;2023-11-22T00:27:07;101755.63;;;11.17
45034;BMP280;30771;47.988;-4.186;2023-11-22T00:29:34;101745.91;;;11.18
45034;BMP280;30771;47.988;-4.186;2023-11-22T00:32:01;101732.09;;;11.15
45034;BMP280;30771;47.988;-4.186;2023-11-22T00:34:28;101739.69;;;11.19
45034;BMP280;30771;47.988;-4.186;2023-11-22T00:36:54;101737.03;;;11.19
45034;BMP280;30771;47.988;-4.186;2023-11-22T00:39:21;101729.13;;;11.19
45034;BMP280;30771;47.988;-4.186;2023-11-22T00:41:48;101728.84;;;11.13
45034;BMP280;30771;47.988;-4.186;2023-11-22T00:44:14;101735.69;;;11.14
45034;BMP280;30771;47.988;-4.186;2023-11-22T00:46:41;101732.63;;;11.11
45034;BMP280;30771;47.988;-4.186;2023-11-22T00:49:07;101739.69;;;11.10
45034;BMP280;30771;47.988;-4.186;2023-11-22T00:51:34;101738.22;;;11.08
45034;BMP280;30771;47.988;-4.186;2023-11-22T00:54:01;101740.22;;;11.06
45034;BMP280;30771;47.988;-4.186;2023-11-22T00:56:27;101730.00;;;11.03
45034;BMP280;30771;47.988;-4.186;2023-11-22T00:58:54;101733.47;;;11.03
45034;BMP280;30771;47.988;-4.186;2023-11-22T01:01:20;101735.59;;;11.00
45034;BMP280;30771;47.988;-4.186;2023-11-22T01:03:47;101730.69;;;10.97
45034;BMP280;30771;47.988;-4.186;2023-11-22T01:06:14;101730.88;;;10.95
45034;BMP280;30771;47.988;-4.186;2023-11-22T01:08:41;101727.56;;;10.93
45034;BMP280;30771;47.988;-4.186;2023-11-22T01:11:07;101733.81;;;10.92
45034;BMP280;30771;47.988;-4.186;2023-11-22T01:13:34;101737.81;;;10.88
45034;BMP280;30771;47.988;-4.186;2023-11-22T01:16:01;101736.16;;;10.87
45034;BMP280;30771;47.988;-4.186;2023-11-22T01:18:27;101743.09;;;10.88
45034;BMP280;30771;47.988;-4.186;2023-11-22T01:20:54;101740.31;;;10.82
45034;BMP280;30771;47.988;-4.186;2023-11-22T01:23:21;101737.69;;;10.82
45034;BMP280;30771;47.988;-4.186;2023-11-22T01:25:47;101750.88;;;10.82
45034;BMP280;30771;47.988;-4.186;2023-11-22T01:28:14;101750.34;;;10.78
45034;BMP280;30771;47.988;-4.186;2023-11-22T01:30:40;101755.16;;;10.75
45034;BMP280;30771;47.988;-4.186;2023-11-22T01:33:07;101755.16;;;10.75
45034;BMP280;30771;47.988;-4.186;2023-11-22T01:35:34;101759.63;;;10.74
45034;BMP280;30771;47.988;-4.186;2023-11-22T01:38:00;101764.38;;;10.71
45034;BMP280;30771;47.988;-4.186;2023-11-22T01:40:27;101770.28;;;10.73
45034;BMP280;30771;47.988;-4.186;2023-11-22T01:42:54;101762.03;;;10.68
45034;BMP280;30771;47.988;-4.186;2023-11-22T01:45:20;101774.25;;;10.69
45034;BMP280;30771;47.988;-4.186;2023-11-22T01:47:47;101787.78;;;10.66
45034;BMP280;30771;47.988;-4.186;2023-11-22T01:50:14;101790.56;;;10.64
45034;BMP280;30771;47.988;-4.186;2023-11-22T01:52:40;101785.63;;;10.61
45034;BMP280;30771;47.988;-4.186;2023-11-22T01:55:08;101794.69;;;10.59
45034;BMP280;30771;47.988;-4.186;2023-11-22T01:57:35;101801.78;;;10.58
45034;BMP280;30771;47.988;-4.186;2023-11-22T02:00:04;101807.03;;;10.58
45034;BMP280;30771;47.988;-4.186;2023-11-22T02:02:33;101812.13;;;10.60
45034;BMP280;30771;47.988;-4.186;2023-11-22T02:05:00;101808.03;;;10.57
45034;BMP280;30771;47.988;-4.186;2023-11-22T02:07:27;101812.47;;;10.57
45034;BMP280;30771;47.988;-4.186;2023-11-22T02:09:54;101812.13;;;10.60
45034;BMP280;30771;47.988;-4.186;2023-11-22T02:12:20;101818.41;;;10.59
45034;BMP280;30771;47.988;-4.186;2023-11-22T02:14:47;101809.00;;;10.56
45034;BMP280;30771;47.988;-4.186;2023-11-22T02:17:14;101824.16;;;10.62
45034;BMP280;30771;47.988;-4.186;2023-11-22T02:19:40;101810.69;;;10.57
45034;BMP280;30771;47.988;-4.186;2023-11-22T02:22:07;101800.94;;;10.58
45034;BMP280;30771;47.988;-4.186;2023-11-22T02:24:34;101818.72;;;10.64
45034;BMP280;30771;47.988;-4.186;2023-11-22T02:27:00;101818.56;;;10.65
45034;BMP280;30771;47.988;-4.186;2023-11-22T02:29:27;101814.28;;;10.64
45034;BMP280;30771;47.988;-4.186;2023-11-22T02:31:54;101813.94;;;10.67
45034;BMP280;30771;47.988;-4.186;2023-11-22T02:34:20;101817.75;;;10.65
45034;BMP280;30771;47.988;-4.186;2023-11-22T02:36:47;101818.19;;;10.68
45034;BMP280;30771;47.988;-4.186;2023-11-22T02:39:35;101800.59;;;10.69
45034;BMP280;30771;47.988;-4.186;2023-11-22T02:42:07;101795.97;;;10.71
45034;BMP280;30771;47.988;-4.186;2023-11-22T02:44:33;101794.50;;;10.68
45034;BMP280;30771;47.988;-4.186;2023-11-22T02:47:00;101807.03;;;10.74
45034;BMP280;30771;47.988;-4.186;2023-11-22T02:49:26;101796.81;;;10.71
45034;BMP280;30771;47.988;-4.186;2023-11-22T02:51:53;101810.66;;;10.73
45034;BMP280;30771;47.988;-4.186;2023-11-22T02:54:19;101806.22;;;10.74
45034;BMP280;30771;47.988;-4.186;2023-11-22T02:56:46;101791.22;;;10.74
45034;BMP280;30771;47.988;-4.186;2023-11-22T02:59:13;101792.03;;;10.75
45034;BMP280;30771;47.988;-4.186;2023-11-22T03:01:39;101790.41;;;10.74
45034;BMP280;30771;47.988;-4.186;2023-11-22T03:04:06;101800.59;;;10.77
45034;BMP280;30771;47.988;-4.186;2023-11-22T03:06:33;101793.47;;;10.77
45034;BMP280;30771;47.988;-4.186;2023-11-22T03:08:59;101806.66;;;10.77
45034;BMP280;30771;47.988;-4.186;2023-11-22T03:11:26;101805.84;;;10.77
45034;BMP280;30771;47.988;-4.186;2023-11-22T03:13:53;101805.84;;;10.77
45034;BMP280;30771;47.988;-4.186;2023-11-22T03:16:19;101810.13;;;10.78
45034;BMP280;30771;47.988;-4.186;2023-11-22T03:18:46;101807.66;;;10.76
45034;BMP280;30771;47.988;-4.186;2023-11-22T03:21:12;101816.22;;;10.78
45034;BMP280;30771;47.988;-4.186;2023-11-22T03:23:39;101814.41;;;10.79
45034;BMP280;30771;47.988;-4.186;2023-11-22T03:26:06;101809.16;;;10.79
45034;BMP280;30771;47.988;-4.186;2023-11-22T03:28:32;101804.72;;;10.79
45034;BMP280;30771;47.988;-4.186;2023-11-22T03:30:59;101811.13;;;10.77
45034;BMP280;30771;47.988;-4.186;2023-11-22T03:33:25;101805.84;;;10.77
45034;BMP280;30771;47.988;-4.186;2023-11-22T03:35:52;101806.03;;;10.75
45034;BMP280;30771;47.988;-4.186;2023-11-22T03:38:19;101803.88;;;10.79
45034;BMP280;30771;47.988;-4.186;2023-11-22T03:40:45;101813.41;;;10.80
45034;BMP280;30771;47.988;-4.186;2023-11-22T03:43:12;101806.66;;;10.77
45034;BMP280;30771;47.988;-4.186;2023-11-22T03:45:38;101814.25;;;10.80
45034;BMP280;30771;47.988;-4.186;2023-11-22T03:48:05;101821.19;;;10.81
45034;BMP280;30771;47.988;-4.186;2023-11-22T03:50:32;101824.66;;;10.82
45034;BMP280;30771;47.988;-4.186;2023-11-22T03:52:58;101830.88;;;10.81
45034;BMP280;30771;47.988;-4.186;2023-11-22T03:55:25;101830.06;;;10.80
45034;BMP280;30771;47.988;-4.186;2023-11-22T03:57:52;101827.91;;;10.84
45034;BMP280;30771;47.988;-4.186;2023-11-22T04:00:18;101828.56;;;10.86
45034;BMP280;30771;47.988;-4.186;2023-11-22T04:02:45;101835.31;;;10.88
45034;BMP280;30771;47.988;-4.186;2023-11-22T04:05:12;101827.59;;;10.87
45034;BMP280;30771;47.988;-4.186;2023-11-22T04:07:38;101832.69;;;10.88
45034;BMP280;30771;47.988;-4.186;2023-11-22T04:10:05;101832.88;;;10.87
45034;BMP280;30771;47.988;-4.186;2023-11-22T04:12:32;101834.34;;;10.89
45034;BMP280;30771;47.988;-4.186;2023-11-22T04:15:02;101843.88;;;10.90
45034;BMP280;30771;47.988;-4.186;2023-11-22T04:17:29;101839.41;;;10.91
45034;BMP280;30771;47.988;-4.186;2023-11-22T04:19:56;101845.34;;;10.93
45034;BMP280;30771;47.988;-4.186;2023-11-22T04:22:22;101849.78;;;10.92
45034;BMP280;30771;47.988;-4.186;2023-11-22T04:24:49;101847.97;;;10.93
45034;BMP280;30771;47.988;-4.186;2023-11-22T04:27:16;101844.69;;;10.91
45034;BMP280;30771;47.988;-4.186;2023-11-22T04:29:42;101838.44;;;10.84
45034;BMP280;30771;47.988;-4.186;2023-11-22T04:32:09;101846.84;;;10.87
45034;BMP280;30771;47.988;-4.186;2023-11-22T04:34:36;101848.69;;;10.87
45034;BMP280;30771;47.988;-4.186;2023-11-22T04:37:02;101850.00;;;10.83
45034;BMP280;30771;47.988;-4.186;2023-11-22T04:39:29;101863.16;;;10.83
45034;BMP280;30771;47.988;-4.186;2023-11-22T04:41:55;101872.09;;;10.82
45034;BMP280;30771;47.988;-4.186;2023-11-22T04:44:22;101874.84;;;10.80
45034;BMP280;30771;47.988;-4.186;2023-11-22T04:46:49;101881.13;;;10.79
45034;BMP280;30771;47.988;-4.186;2023-11-22T04:49:15;101888.19;;;10.79
45034;BMP280;30771;47.988;-4.186;2023-11-22T04:51:42;101890.19;;;10.77
45034;BMP280;30771;47.988;-4.186;2023-11-22T04:54:09;101888.50;;;10.76
45034;BMP280;30771;47.988;-4.186;2023-11-22T04:56:35;101893.78;;;10.76
45034;BMP280;30771;47.988;-4.186;2023-11-22T04:59:02;101895.78;;;10.74
45034;BMP280;30771;47.988;-4.186;2023-11-22T05:01:32;101890.84;;;10.71
45034;BMP280;30771;47.988;-4.186;2023-11-22T05:03:59;101891.13;;;10.68
45034;BMP280;30771;47.988;-4.186;2023-11-22T05:06:26;101890.34;;;10.67
45034;BMP280;30771;47.988;-4.186;2023-11-22T05:08:53;101893.31;;;10.64
45034;BMP280;30771;47.988;-4.186;2023-11-22T05:11:19;101903.34;;;10.61
45034;BMP280;30771;47.988;-4.186;2023-11-22T05:13:46;101902.03;;;10.57
45034;BMP280;30771;47.988;-4.186;2023-11-22T05:16:13;101916.72;;;10.59
45034;BMP280;30771;47.988;-4.186;2023-11-22T05:18:39;101920.63;;;10.55
45034;BMP280;30771;47.988;-4.186;2023-11-22T05:21:06;101935.44;;;10.56
45034;BMP280;30771;47.988;-4.186;2023-11-22T05:23:32;101934.94;;;10.53
45034;BMP280;30771;47.988;-4.186;2023-11-22T05:25:59;101938.25;;;10.55
45034;BMP280;30771;47.988;-4.186;2023-11-22T05:28:26;101934.47;;;10.49
45034;BMP280;30771;47.988;-4.186;2023-11-22T05:30:52;101935.31;;;10.50
45034;BMP280;30771;47.988;-4.186;2023-11-22T05:33:19;101942.84;;;10.53
45034;BMP280;30771;47.988;-4.186;2023-11-22T05:35:45;101941.41;;;10.50
45034;BMP280;30771;47.988;-4.186;2023-11-22T05:38:12;101943.50;;;10.47
45034;BMP280;30771;47.988;-4.186;2023-11-22T05:40:39;101953.22;;;10.46
45034;BMP280;30771;47.988;-4.186;2023-11-22T05:43:05;101956.66;;;10.47
45034;BMP280;30771;47.988;-4.186;2023-11-22T05:45:36;101969.31;;;10.43
45034;BMP280;30771;47.988;-4.186;2023-11-22T05:48:03;101968.97;;;10.38
45034;BMP280;30771;47.988;-4.186;2023-11-22T05:50:29;101966.03;;;10.33
45034;BMP280;30771;47.988;-4.186;2023-11-22T05:52:56;101964.03;;;10.27
45034;BMP280;30771;47.988;-4.186;2023-11-22T05:55:23;101991.19;;;10.28
45034;BMP280;30771;47.988;-4.186;2023-11-22T05:57:49;102003.34;;;10.21
45034;BMP280;30771;47.988;-4.186;2023-11-22T06:00:16;102026.19;;;10.20
45034;BMP280;30771;47.988;-4.186;2023-11-22T06:02:43;102023.38;;;10.13
45034;BMP280;30771;47.988;-4.186;2023-11-22T06:05:10;102027.63;;;10.06
45034;BMP280;30771;47.988;-4.186;2023-11-22T06:07:37;102050.50;;;10.06
45034;BMP280;30771;47.988;-4.186;2023-11-22T06:10:04;102059.66;;;10.02
45034;BMP280;30771;47.988;-4.186;2023-11-22T06:12:30;102061.81;;;9.98
45034;BMP280;30771;47.988;-4.186;2023-11-22T06:14:57;102060.16;;;9.97
45034;BMP280;30771;47.988;-4.186;2023-11-22T06:17:24;102072.63;;;9.95
45034;BMP280;30771;47.988;-4.186;2023-11-22T06:19:50;102066.47;;;9.87
45034;BMP280;30771;47.988;-4.186;2023-11-22T06:22:17;102078.13;;;9.84
45034;BMP280;30771;47.988;-4.186;2023-11-22T06:24:44;102081.25;;;9.80
45034;BMP280;30771;47.988;-4.186;2023-11-22T06:27:10;102089.97;;;9.80
45034;BMP280;30771;47.988;-4.186;2023-11-22T06:29:37;102091.09;;;9.78
45034;BMP280;30771;47.988;-4.186;2023-11-22T06:32:04;102084.50;;;9.74
45034;BMP280;30771;47.988;-4.186;2023-11-22T06:34:31;102089.41;;;9.69
45034;BMP280;30771;47.988;-4.186;2023-11-22T06:36:58;102091.19;;;9.68
45034;BMP280;30771;47.988;-4.186;2023-11-22T06:39:24;102100.22;;;9.66
45034;BMP280;30771;47.988;-4.186;2023-11-22T06:41:51;102092.78;;;9.61
45034;BMP280;30771;47.988;-4.186;2023-11-22T06:44:17;102098.19;;;9.60
45034;BMP280;30771;47.988;-4.186;2023-11-22T06:46:44;102101.78;;;9.59
45034;BMP280;30771;47.988;-4.186;2023-11-22T06:49:11;102102.94;;;9.56
45034;BMP280;30771;47.988;-4.186;2023-11-22T06:51:37;102085.13;;;9.50
45034;BMP280;30771;47.988;-4.186;2023-11-22T06:54:04;102080.53;;;9.52
45034;BMP280;30771;47.988;-4.186;2023-11-22T06:56:31;102078.06;;;9.51
45034;BMP280;30771;47.988;-4.186;2023-11-22T06:58:57;102088.09;;;9.47
45034;BMP280;30771;47.988;-4.186;2023-11-22T07:01:24;102081.31;;;9.45
45034;BMP280;30771;47.988;-4.186;2023-11-22T07:03:51;102080.13;;;9.39
45034;BMP280;30771;47.988;-4.186;2023-11-22T07:06:18;102075.16;;;9.36
45034;BMP280;30771;47.988;-4.186;2023-11-22T07:08:45;102090.09;;;9.36
45034;BMP280;30771;47.988;-4.186;2023-11-22T07:11:11;102083.47;;;9.32
45034;BMP280;30771;47.988;-4.186;2023-11-22T07:13:38;102086.78;;;9.34
45034;BMP280;30771;47.988;-4.186;2023-11-22T07:16:05;102092.03;;;9.34
45034;BMP280;30771;47.988;-4.186;2023-11-22T07:18:32;102102.72;;;9.32
45034;BMP280;30771;47.988;-4.186;2023-11-22T07:20:59;102104.06;;;9.36
45034;BMP280;30771;47.988;-4.186;2023-11-22T07:23:26;102101.44;;;9.36
45034;BMP280;30771;47.988;-4.186;2023-11-22T07:25:52;102096.19;;;9.36
45034;BMP280;30771;47.988;-4.186;2023-11-22T07:28:19;102095.34;;;9.36
45034;BMP280;30771;47.988;-4.186;2023-11-22T07:30:45;102093.41;;;9.38
45034;BMP280;30771;47.988;-4.186;2023-11-22T07:33:12;102091.75;;;9.37
45034;BMP280;30771;47.988;-4.186;2023-11-22T07:35:39;102092.03;;;9.34
45034;BMP280;30771;47.988;-4.186;2023-11-22T07:38:05;102098.44;;;9.31
45034;BMP280;30771;47.988;-4.186;2023-11-22T07:40:32;102102.72;;;9.32
45034;BMP280;30771;47.988;-4.186;2023-11-22T07:42:59;102113.22;;;9.32
45034;BMP280;30771;47.988;-4.186;2023-11-22T07:45:25;102121.13;;;9.32
45034;BMP280;30771;47.988;-4.186;2023-11-22T07:47:52;102122.13;;;9.31
45034;BMP280;30771;47.988;-4.186;2023-11-22T07:50:19;102127.06;;;9.34
45034;BMP280;30771;47.988;-4.186;2023-11-22T07:52:45;102125.38;;;9.33
45034;BMP280;30771;47.988;-4.186;2023-11-22T07:55:12;102140.03;;;9.36
45034;BMP280;30771;47.988;-4.186;2023-11-22T07:57:39;102129.69;;;9.34
45034;BMP280;30771;47.988;-4.186;2023-11-22T08:00:06;102140.03;;;9.36
45034;BMP280;30771;47.988;-4.186;2023-11-22T08:02:34;102141.03;;;9.35
45034;BMP280;30771;47.988;-4.186;2023-11-22T08:05:03;102145.47;;;9.34
45034;BMP280;30771;47.988;-4.186;2023-11-22T08:07:30;102149.72;;;9.35
45034;BMP280;30771;47.988;-4.186;2023-11-22T08:09:57;102152.75;;;9.40
45034;BMP280;30771;47.988;-4.186;2023-11-22T08:12:23;102136.97;;;9.40
45034;BMP280;30771;47.988;-4.186;2023-11-22T08:14:50;102138.47;;;9.43
45034;BMP280;30771;47.988;-4.186;2023-11-22T08:17:17;102139.00;;;9.46
45034;BMP280;30771;47.988;-4.186;2023-11-22T08:19:43;102133.47;;;9.49
45034;BMP280;30771;47.988;-4.186;2023-11-22T08:22:10;102141.72;;;9.54
45034;BMP280;30771;47.988;-4.186;2023-11-22T08:24:37;102141.78;;;9.62
45034;BMP280;30771;47.988;-4.186;2023-11-22T08:27:03;102155.47;;;9.66
45034;BMP280;30771;47.988;-4.186;2023-11-22T08:29:30;102161.25;;;9.69
45034;BMP280;30771;47.988;-4.186;2023-11-22T08:31:57;102171.00;;;9.77
45034;BMP280;30771;47.988;-4.186;2023-11-22T08:34:23;102166.28;;;9.80
45034;BMP280;30771;47.988;-4.186;2023-11-22T08:36:50;102170.09;;;9.86
45034;BMP280;30771;47.988;-4.186;2023-11-22T08:39:17;102189.41;;;9.94
45034;BMP280;30771;47.988;-4.186;2023-11-22T08:41:43;102184.41;;;10.01
45034;BMP280;30771;47.988;-4.186;2023-11-22T08:44:10;102204.34;;;10.11
45034;BMP280;30771;47.988;-4.186;2023-11-22T08:46:37;102210.50;;;10.20
45034;BMP280;30771;47.988;-4.186;2023-11-22T08:49:03;102211.72;;;10.26
45034;BMP280;30771;47.988;-4.186;2023-11-22T08:51:30;102219.13;;;10.30
45034;BMP280;30771;47.988;-4.186;2023-11-22T08:53:56;102230.19;;;10.34
45034;BMP280;30771;47.988;-4.186;2023-11-22T08:56:23;102240.25;;;10.38
45034;BMP280;30771;47.988;-4.186;2023-11-22T08:58:50;102251.97;;;10.44
45034;BMP280;30771;47.988;-4.186;2023-11-22T09:01:16;102263.03;;;10.47
45034;BMP280;30771;47.988;-4.186;2023-11-22T09:03:43;102262.03;;;10.48
45034;BMP280;30771;47.988;-4.186;2023-11-22T09:06:10;102274.59;;;10.54
45034;BMP280;30771;47.988;-4.186;2023-11-22T09:08:36;102273.78;;;10.54
45034;BMP280;30771;47.988;-4.186;2023-11-22T09:11:03;102302.53;;;10.65
45034;BMP280;30771;47.988;-4.186;2023-11-22T09:13:29;102310.63;;;10.71
45034;BMP280;30771;47.988;-4.186;2023-11-22T09:15:56;102315.59;;;10.74
45034;BMP280;30771;47.988;-4.186;2023-11-22T09:18:22;102342.81;;;10.83
45034;BMP280;30771;47.988;-4.186;2023-11-22T09:20:49;102359.34;;;10.93
45034;BMP280;30771;47.988;-4.186;2023-11-22T09:23:15;102375.06;;;11.02
45034;BMP280;30771;47.988;-4.186;2023-11-22T09:25:42;102381.22;;;11.11
45034;BMP280;30771;47.988;-4.186;2023-11-22T09:28:09;102402.50;;;11.18
45034;BMP280;30771;47.988;-4.186;2023-11-22T09:30:36;102429.25;;;11.23
45034;BMP280;30771;47.988;-4.186;2023-11-22T09:35:30;102483.22;;;11.28
45034;BMP280;30771;47.988;-4.186;2023-11-22T09:38:01;102492.72;;;11.29
45034;BMP280;30771;47.988;-4.186;2023-11-22T09:40:28;102511.09;;;11.39
45034;BMP280;30771;47.988;-4.186;2023-11-22T09:42:55;102508.47;;;11.39
45034;BMP280;30771;47.988;-4.186;2023-11-22T09:45:22;102524.69;;;11.44
45034;BMP280;30771;47.988;-4.186;2023-11-22T09:47:48;102548.13;;;11.47
45034;BMP280;30771;47.988;-4.186;2023-11-22T09:53:02;102573.06;;;11.52
45034;BMP280;30771;47.988;-4.186;2023-11-22T09:55:29;102597.84;;;11.59
45034;BMP280;30771;47.988;-4.186;2023-11-22T09:57:59;102600.03;;;11.64
45034;BMP280;30771;47.988;-4.186;2023-11-22T10:00:28;102610.28;;;11.67
45034;BMP280;30771;47.988;-4.186;2023-11-22T10:02:55;102614.59;;;11.68
45034;BMP280;30771;47.988;-4.186;2023-11-22T10:05:22;102616.41;;;11.75
45034;BMP280;30771;47.988;-4.186;2023-11-22T10:07:48;102607.88;;;11.81
45034;BMP280;30771;47.988;-4.186;2023-11-22T10:10:15;102616.84;;;11.88
45034;BMP280;30771;47.988;-4.186;2023-11-22T10:12:42;102630.88;;;11.89
45034;BMP280;30771;47.988;-4.186;2023-11-22T10:15:13;102640.66;;;11.96
45034;BMP280;30771;47.988;-4.186;2023-11-22T10:17:40;102651.91;;;11.98
45034;BMP280;30771;47.988;-4.186;2023-11-22T10:20:07;102657.47;;;11.95
45034;BMP280;30771;47.988;-4.186;2023-11-22T10:22:43;102674.06;;;12.05
45034;BMP280;30771;47.988;-4.186;2023-11-22T10:25:10;102694.22;;;12.06
45034;BMP280;30771;47.988;-4.186;2023-11-22T10:27:37;102711.13;;;12.13
45034;BMP280;30771;47.988;-4.186;2023-11-22T10:30:04;102735.84;;;12.12
45034;BMP280;30771;47.988;-4.186;2023-11-22T10:32:31;102737.59;;;12.22
45034;BMP280;30771;47.988;-4.186;2023-11-22T10:34:58;102735.16;;;12.28
45034;BMP280;30771;47.988;-4.186;2023-11-22T10:37:24;102728.25;;;12.35
45034;BMP280;30771;47.988;-4.186;2023-11-22T10:39:51;102736.53;;;12.40
45034;BMP280;30771;47.988;-4.186;2023-11-22T10:42:18;102748.44;;;12.44
45034;BMP280;30771;47.988;-4.186;2023-11-22T10:44:46;102750.09;;;12.45
45034;BMP280;30771;47.988;-4.186;2023-11-22T10:47:14;102763.84;;;12.49
45034;BMP280;30771;47.988;-4.186;2023-11-22T10:49:41;102766.34;;;12.50
45034;BMP280;30771;47.988;-4.186;2023-11-22T10:52:12;102773.59;;;12.48
45034;BMP280;30771;47.988;-4.186;2023-11-22T10:54:44;102764.84;;;12.48
45034;BMP280;30771;47.988;-4.186;2023-11-22T10:57:16;102782.50;;;12.47
45034;BMP280;30771;47.988;-4.186;2023-11-22T10:59:52;102791.25;;;12.48
45034;BMP280;30771;47.988;-4.186;2023-11-22T11:02:21;102803.47;;;12.49
45034;BMP280;30771;47.988;-4.186;2023-11-22T11:04:55;102787.16;;;12.53
45034;BMP280;30771;47.988;-4.186;2023-11-22T11:07:29;102778.75;;;12.58
45034;BMP280;30771;47.988;-4.186;2023-11-22T11:09:57;102768.56;;;12.63
45034;BMP280;30771;47.988;-4.186;2023-11-22T11:12:32;102799.63;;;12.61
45034;BMP280;30771;47.988;-4.186;2023-11-22T11:14:59;102811.00;;;12.61
45034;BMP280;30771;47.988;-4.186;2023-11-22T11:17:26;102824.91;;;12.63
45034;BMP280;30771;47.988;-4.186;2023-11-22T11:19:52;102834.84;;;12.69
45034;BMP280;30771;47.988;-4.186;2023-11-22T11:22:21;102850.19;;;12.66
45034;BMP280;30771;47.988;-4.186;2023-11-22T11:24:48;102855.03;;;12.70
45034;BMP280;30771;47.988;-4.186;2023-11-22T11:27:15;102848.06;;;12.69
45034;BMP280;30771;47.988;-4.186;2023-11-22T11:29:41;102850.41;;;12.72
45034;BMP280;30771;47.988;-4.186;2023-11-22T11:32:12;102833.03;;;12.70
45034;BMP280;30771;47.988;-4.186;2023-11-22T11:34:48;102823.94;;;12.72
45034;BMP280;30771;47.988;-4.186;2023-11-22T11:37:14;102812.25;;;12.75
45034;BMP280;30771;47.988;-4.186;2023-11-22T11:39:41;102825.59;;;12.73
45034;BMP280;30771;47.988;-4.186;2023-11-22T11:42:11;102813.38;;;12.72
45034;BMP280;30771;47.988;-4.186;2023-11-22T11:45:03;102801.78;;;12.73
45034;BMP280;30771;47.988;-4.186;2023-11-22T11:47:30;102792.28;;;12.80
45034;BMP280;30771;47.988;-4.186;2023-11-22T11:49:56;102791.78;;;12.85
45034;BMP280;30771;47.988;-4.186;2023-11-22T11:52:25;102790.50;;;12.89
45034;BMP280;30771;47.988;-4.186;2023-11-22T11:54:51;102800.09;;;12.90
45034;BMP280;30771;47.988;-4.186;2023-11-22T11:57:18;102807.84;;;12.91
45034;BMP280;30771;47.988;-4.186;2023-11-22T11:59:44;102817.59;;;12.91
45034;BMP280;30771;47.988;-4.186;2023-11-22T12:02:11;102817.09;;;12.87
45034;BMP280;30771;47.988;-4.186;2023-11-22T12:04:37;102825.94;;;12.78
45034;BMP280;30771;47.988;-4.186;2023-11-22T12:07:07;102814.22;;;12.73
45034;BMP280;30771;47.988;-4.186;2023-11-22T12:09:34;102806.72;;;12.68
45034;BMP280;30771;47.988;-4.186;2023-11-22T12:12:01;102813.31;;;12.64
45034;BMP280;30771;47.988;-4.186;2023-11-22T12:14:28;102803.91;;;12.62
45034;BMP280;30771;47.988;-4.186;2023-11-22T12:16:54;102797.66;;;12.63
45034;BMP280;30771;47.988;-4.186;2023-11-22T12:19:22;102789.16;;;12.59
45034;BMP280;30771;47.988;-4.186;2023-11-22T12:21:49;102783.59;;;12.62
45034;BMP280;30771;47.988;-4.186;2023-11-22T12:24:15;102767.91;;;12.69
45034;BMP280;30771;47.988;-4.186;2023-11-22T12:26:46;102764.31;;;12.78
45034;BMP280;30771;47.988;-4.186;2023-11-22T12:29:13;102761.22;;;12.82
45034;BMP280;30771;47.988;-4.186;2023-11-22T12:31:46;102759.88;;;12.86
45034;BMP280;30771;47.988;-4.186;2023-11-22T12:34:14;102769.97;;;12.91
45034;BMP280;30771;47.988;-4.186;2023-11-22T12:36:41;102773.47;;;12.91
45034;BMP280;30771;47.988;-4.186;2023-11-22T12:39:08;102804.56;;;12.89
45034;BMP280;30771;47.988;-4.186;2023-11-22T12:41:35;102817.09;;;12.87
45034;BMP280;30771;47.988;-4.186;2023-11-22T12:44:05;102829.13;;;12.82
45034;BMP280;30771;47.988;-4.186;2023-11-22T12:46:52;102845.84;;;12.82
45034;BMP280;30771;47.988;-4.186;2023-11-22T12:49:18;102853.59;;;12.84
45034;BMP280;30771;47.988;-4.186;2023-11-22T12:51:49;102832.28;;;12.85
45034;BMP280;30771;47.988;-4.186;2023-11-22T12:54:16;102829.84;;;12.92
45034;BMP280;30771;47.988;-4.186;2023-11-22T12:56:43;102810.66;;;12.98
45034;BMP280;30771;47.988;-4.186;2023-11-22T12:59:10;102803.94;;;13.03
45034;BMP280;30771;47.988;-4.186;2023-11-22T13:01:36;102795.00;;;13.04
45034;BMP280;30771;47.988;-4.186;2023-11-22T13:04:03;102780.66;;;13.07
45034;BMP280;30771;47.988;-4.186;2023-11-22T13:06:31;102786.28;;;13.12
45034;BMP280;30771;47.988;-4.186;2023-11-22T13:08:58;102787.75;;;13.06
45034;BMP280;30771;47.988;-4.186;2023-11-22T13:11:24;102797.00;;;13.02
45034;BMP280;30771;47.988;-4.186;2023-11-22T13:13:51;102799.28;;;12.97
45034;BMP280;30771;47.988;-4.186;2023-11-22T13:16:17;102809.19;;;12.95
45034;BMP280;30771;47.988;-4.186;2023-11-22T13:18:44;102811.16;;;12.93
45034;BMP280;30771;47.988;-4.186;2023-11-22T13:21:11;102812.16;;;12.92
45034;BMP280;30771;47.988;-4.186;2023-11-22T13:23:37;102826.00;;;12.86
45034;BMP280;30771;47.988;-4.186;2023-11-22T13:26:04;102824.81;;;12.81
45034;BMP280;30771;47.988;-4.186;2023-11-22T13:28:30;102821.66;;;12.77
45034;BMP280;30771;47.988;-4.186;2023-11-22T13:30:57;102816.88;;;12.81
45034;BMP280;30771;47.988;-4.186;2023-11-22T13:33:23;102817.03;;;12.79
45034;BMP280;30771;47.988;-4.186;2023-11-22T13:35:50;102806.63;;;12.78
45034;BMP280;30771;47.988;-4.186;2023-11-22T13:38:16;102800.00;;;12.74
45034;BMP280;30771;47.988;-4.186;2023-11-22T13:40:43;102810.09;;;12.70
45034;BMP280;30771;47.988;-4.186;2023-11-22T13:43:09;102806.59;;;12.70
45034;BMP280;30771;47.988;-4.186;2023-11-22T13:45:36;102813.09;;;12.75
45034;BMP280;30771;47.988;-4.186;2023-11-22T13:48:04;102809.59;;;12.75
45034;BMP280;30771;47.988;-4.186;2023-11-22T13:50:31;102798.03;;;12.76